Pottstown, Pennsylvania
Current Conditions -  °F | °C
As of 7:54 PM on Saturday 20 Dec 2014 (Local Time) from KPTW Reporting Station
Overcast Overcast  
Wind Chill: 27°   Ceiling: 3100
Heat Index: 32°   Visibility: 10mi
Dew Point: 21°   Wind: 5mph
Humidity: 64%   Direction: 330°NNW
Pressure: 30.3"   Gusts: NA
Location:  40.25°N, 75.65°W
Report Text: KPTW 210054Z AUTO 33004KT 10SM OVC031 00/M06 A3030 RMK AO2 SLP259 T00001061
Loading
Personal Weather Stations






























Interactive Weather Map New forecast layout! Learn more

10-Day Weather Forecast

Advertisements
Track Severe Weather on mobile